createdAt,value
2019-02-18T00:00:57.479Z,1016.39
2019-02-18T00:01:57.515Z,1016.39
2019-02-18T00:02:57.546Z,1016.33
2019-02-18T00:03:57.578Z,1016.37
2019-02-18T00:04:57.554Z,1016.36
2019-02-18T00:05:57.585Z,1016.33
2019-02-18T00:06:57.669Z,1016.32
2019-02-18T00:07:57.704Z,1016.35
2019-02-18T00:08:57.679Z,1016.30
2019-02-18T00:09:57.765Z,1016.32
2019-02-18T00:10:58.048Z,1016.30
2019-02-18T00:11:57.835Z,1016.36
2019-02-18T00:12:57.811Z,1016.35
2019-02-18T00:13:57.847Z,1016.37
2019-02-18T00:14:57.927Z,1016.37
2019-02-18T00:15:57.960Z,1016.34
2019-02-18T00:16:57.985Z,1016.35
2019-02-18T00:17:58.022Z,1016.33
2019-02-18T00:18:58.056Z,1016.31
2019-02-18T00:19:58.044Z,1016.34
2019-02-18T00:20:58.120Z,1016.35
2019-02-18T00:21:58.103Z,1016.33
2019-02-18T00:22:58.185Z,1016.32
2019-02-18T00:23:58.464Z,1016.29
2019-02-18T00:24:58.201Z,1016.32
2019-02-18T00:25:58.274Z,1016.31
2019-02-18T00:26:58.321Z,1016.31
2019-02-18T00:27:58.292Z,1016.31
2019-02-18T00:28:58.370Z,1016.33
2019-02-18T00:29:58.658Z,1016.34
2019-02-18T00:30:58.386Z,1016.37
2019-02-18T00:31:58.466Z,1016.34
2019-02-18T00:32:58.501Z,1016.33
2019-02-18T00:33:58.483Z,1016.34
2019-02-18T00:34:58.512Z,1016.34
2019-02-18T00:35:58.843Z,1016.37
2019-02-18T00:36:58.623Z,1016.36
2019-02-18T00:37:58.607Z,1016.35
2019-02-18T00:38:58.689Z,1016.35
2019-02-18T00:39:58.723Z,1016.33
2019-02-18T00:40:58.754Z,1016.34
2019-02-18T00:41:58.887Z,1016.33
2019-02-18T00:42:59.068Z,1016.30
2019-02-18T00:43:58.808Z,1016.32
2019-02-18T00:45:58.863Z,1016.37
2019-02-18T00:46:58.955Z,1016.34
2019-02-18T00:47:58.974Z,1016.36
2019-02-18T00:48:59.007Z,1016.35
2019-02-18T00:49:59.292Z,1016.35
2019-02-18T00:50:59.022Z,1016.37
2019-02-18T00:51:59.056Z,1016.32
2019-02-18T00:52:59.092Z,1016.35
2019-02-18T00:53:59.167Z,1016.33
2019-02-18T00:54:59.202Z,1016.35
2019-02-18T00:55:59.232Z,1016.34
2019-02-18T00:56:59.215Z,1016.32
2019-02-18T00:57:59.248Z,1016.34
2019-02-18T00:58:59.278Z,1016.34
2019-02-18T00:59:59.358Z,1016.32
2019-02-18T01:00:59.392Z,1016.35
2019-02-18T01:01:59.376Z,1016.34
2019-02-18T01:02:59.701Z,1016.33
2019-02-18T01:03:59.491Z,1016.37
2019-02-18T01:04:59.466Z,1016.33
2019-02-18T01:05:59.551Z,1016.29
2019-02-18T01:06:59.577Z,1016.33
2019-02-18T01:07:59.575Z,1016.35
2019-02-18T01:08:59.598Z,1016.29
2019-02-18T01:09:59.980Z,1016.31
2019-02-18T01:10:59.706Z,1016.31
2019-02-18T01:11:59.693Z,1016.31
2019-02-18T01:12:59.725Z,1016.30
2019-02-18T01:13:59.750Z,1016.30
2019-02-18T01:14:59.844Z,1016.33
2019-02-18T01:15:59.880Z,1016.30
2019-02-18T01:17:00.153Z,1016.31
2019-02-18T01:17:59.880Z,1016.26
2019-02-18T01:18:59.919Z,1016.30
2019-02-18T01:19:59.946Z,1016.29
2019-02-18T01:21:00.023Z,1016.29
2019-02-18T01:22:00.054Z,1016.31
2019-02-18T01:23:00.090Z,1016.30
2019-02-18T01:24:00.375Z,1016.28
2019-02-18T01:25:00.172Z,1016.25
2019-02-18T01:26:00.139Z,1016.26
2019-02-18T01:27:00.220Z,1016.27
2019-02-18T01:28:00.253Z,1016.26
2019-02-18T01:29:00.232Z,1016.28
2019-02-18T01:30:00.264Z,1016.26
2019-02-18T01:31:00.591Z,1016.26
2019-02-18T01:32:00.386Z,1016.23
2019-02-18T01:33:00.402Z,1016.24
2019-02-18T01:34:00.391Z,1016.23
2019-02-18T01:35:00.475Z,1016.24
2019-02-18T01:36:00.454Z,1016.23
2019-02-18T01:37:00.485Z,1016.23
2019-02-18T01:38:00.815Z,1016.19
2019-02-18T01:39:00.599Z,1016.16
2019-02-18T01:40:00.588Z,1016.16
2019-02-18T01:43:00.722Z,1016.17
2019-02-18T01:44:00.760Z,1016.14
2019-02-18T01:45:01.038Z,1016.16
2019-02-18T01:46:00.819Z,1016.14
2019-02-18T01:47:00.797Z,1016.15
2019-02-18T01:48:00.828Z,1016.17
2019-02-18T01:49:00.860Z,1016.21
2019-02-18T01:50:00.928Z,1016.20
2019-02-18T01:51:01.278Z,1016.18
2019-02-18T01:52:01.011Z,1016.18
2019-02-18T01:53:00.996Z,1016.18
2019-02-18T01:54:01.018Z,1016.16
2019-02-18T01:55:01.051Z,1016.17
2019-02-18T01:56:01.129Z,1016.19
2019-02-18T01:57:01.412Z,1016.16
2019-02-18T01:58:01.148Z,1016.17
2019-02-18T01:59:01.234Z,1016.19
2019-02-18T02:00:01.310Z,1016.19
2019-02-18T02:01:01.295Z,1016.14
2019-02-18T02:02:01.277Z,1016.15
2019-02-18T02:03:01.602Z,1016.11
2019-02-18T02:04:01.438Z,1016.15
2019-02-18T02:05:01.420Z,1016.08
2019-02-18T02:06:01.394Z,1016.08
2019-02-18T02:07:01.429Z,1016.09
2019-02-18T02:08:01.581Z,1016.10
2019-02-18T02:09:01.495Z,1016.09
2019-02-18T02:10:01.872Z,1016.10
2019-02-18T02:11:01.605Z,1016.03
2019-02-18T02:12:01.592Z,1016.05
2019-02-18T02:13:01.621Z,1016.03
2019-02-18T02:14:01.712Z,1016.01
2019-02-18T02:15:01.748Z,1016.04
2019-02-18T02:16:01.764Z,1016.02
2019-02-18T02:17:01.797Z,1016.00
2019-02-18T02:18:01.786Z,1016.02
2019-02-18T02:19:01.869Z,1016.01
2019-02-18T02:20:01.896Z,1016.01
2019-02-18T02:21:01.876Z,1016.02
2019-02-18T02:22:01.962Z,1016.01
2019-02-18T02:23:02.238Z,1016.00
2019-02-18T02:24:01.966Z,1015.97
2019-02-18T02:25:01.999Z,1015.98
2019-02-18T02:26:02.033Z,1016.00
2019-02-18T02:27:02.108Z,1016.02
2019-02-18T02:28:02.146Z,1015.98
2019-02-18T02:29:02.142Z,1015.98
2019-02-18T02:30:02.454Z,1015.98
2019-02-18T02:31:02.254Z,1015.97
2019-02-18T02:32:02.285Z,1015.93
2019-02-18T02:33:02.269Z,1015.95
2019-02-18T02:34:02.330Z,1015.92
2019-02-18T02:35:02.372Z,1015.90
2019-02-18T02:36:02.349Z,1015.89
2019-02-18T02:37:02.693Z,1015.87
2019-02-18T02:38:07.823Z,1015.87
2019-02-18T02:39:02.457Z,1015.88
2019-02-18T02:40:02.519Z,1015.89
2019-02-18T02:41:02.501Z,1015.88
2019-02-18T02:42:02.538Z,1015.87
2019-02-18T02:43:02.574Z,1015.87
2019-02-18T02:44:02.901Z,1015.89
2019-02-18T02:45:02.680Z,1015.84
2019-02-18T02:46:02.668Z,1015.84
2019-02-18T02:47:02.740Z,1015.81
2019-02-18T02:48:02.770Z,1015.76
2019-02-18T02:49:02.757Z,1015.83
2019-02-18T02:50:02.784Z,1015.80
2019-02-18T02:51:03.178Z,1015.82
2019-02-18T02:52:02.850Z,1015.85
2019-02-18T02:53:02.933Z,1015.79
2019-02-18T02:54:02.965Z,1015.80
2019-02-18T02:55:02.992Z,1015.79
2019-02-18T02:56:02.978Z,1015.81
2019-02-18T02:57:03.054Z,1015.80
2019-02-18T02:58:03.082Z,1015.83
2019-02-18T02:59:03.074Z,1015.80
2019-02-18T03:00:03.107Z,1015.81
2019-02-18T03:01:03.142Z,1015.79
2019-02-18T03:02:03.220Z,1015.78
2019-02-18T03:03:03.251Z,1015.83
2019-02-18T03:04:03.526Z,1015.79
2019-02-18T03:05:03.262Z,1015.77
2019-02-18T03:06:03.354Z,1015.79
2019-02-18T03:07:03.427Z,1015.76
2019-02-18T03:08:03.354Z,1015.77
2019-02-18T03:09:03.382Z,1015.73
2019-02-18T03:10:03.720Z,1015.72
2019-02-18T03:11:03.493Z,1015.76
2019-02-18T03:12:03.493Z,1015.76
2019-02-18T03:13:03.507Z,1015.74
2019-02-18T03:14:03.546Z,1015.73
2019-02-18T03:15:03.571Z,1015.75
2019-02-18T03:16:03.901Z,1015.73
2019-02-18T03:17:03.685Z,1015.70
2019-02-18T03:18:03.676Z,1015.69
2019-02-18T03:19:03.702Z,1015.75
2019-02-18T03:20:03.759Z,1015.70
2019-02-18T03:21:03.771Z,1015.70
2019-02-18T03:22:03.849Z,1015.70
2019-02-18T03:23:03.869Z,1015.71
2019-02-18T03:24:03.902Z,1015.67
2019-02-18T03:25:03.887Z,1015.66
2019-02-18T03:26:03.962Z,1015.69
2019-02-18T03:27:03.949Z,1015.71
2019-02-18T03:28:04.178Z,1015.71
2019-02-18T03:29:04.308Z,1015.70
2019-02-18T03:30:04.098Z,1015.69
2019-02-18T03:31:04.131Z,1015.69
2019-02-18T03:32:04.105Z,1015.68
2019-02-18T03:33:04.185Z,1015.68
2019-02-18T03:34:04.166Z,1015.70
2019-02-18T03:35:04.244Z,1015.65
2019-02-18T03:36:04.578Z,1015.69
2019-02-18T03:37:04.315Z,1015.70
2019-02-18T03:38:04.298Z,1015.67
2019-02-18T03:39:04.332Z,1015.70
2019-02-18T03:40:04.354Z,1015.73
2019-02-18T03:41:04.388Z,1015.67
2019-02-18T03:42:04.466Z,1015.71
2019-02-18T03:43:04.748Z,1015.66
2019-02-18T03:44:04.476Z,1015.66
2019-02-18T03:45:04.558Z,1015.65
2019-02-18T03:46:04.592Z,1015.67
2019-02-18T03:47:04.633Z,1015.66
2019-02-18T03:48:04.616Z,1015.63
2019-02-18T03:49:04.634Z,1015.68
2019-02-18T03:50:04.974Z,1015.66
2019-02-18T03:51:04.747Z,1015.64
2019-02-18T03:52:04.793Z,1015.63
2019-02-18T03:53:04.763Z,1015.65
2019-02-18T03:54:04.793Z,1015.66
2019-02-18T03:55:04.828Z,1015.65
2019-02-18T03:56:04.856Z,1015.60
2019-02-18T03:57:05.186Z,1015.65
2019-02-18T03:58:04.940Z,1015.62
2019-02-18T03:59:05.009Z,1015.63
2019-02-18T04:00:05.043Z,1015.61
2019-02-18T04:01:05.015Z,1015.64
2019-02-18T04:02:05.048Z,1015.60
2019-02-18T04:03:05.131Z,1015.64
2019-02-18T04:04:05.466Z,1015.65
2019-02-18T04:05:05.142Z,1015.61
2019-02-18T04:06:05.166Z,1015.65
2019-02-18T04:07:05.252Z,1015.62
2019-02-18T04:08:05.235Z,1015.64
2019-02-18T04:09:05.347Z,1015.62
2019-02-18T04:10:05.290Z,1015.62
2019-02-18T04:11:05.676Z,1015.62
2019-02-18T04:12:05.410Z,1015.65
2019-02-18T04:13:05.441Z,1015.62
2019-02-18T04:14:05.487Z,1015.64
2019-02-18T04:15:05.505Z,1015.61
2019-02-18T04:16:05.530Z,1015.60
2019-02-18T04:17:05.516Z,1015.56
2019-02-18T04:18:05.850Z,1015.61
2019-02-18T04:19:05.628Z,1015.58
2019-02-18T04:20:05.657Z,1015.58
2019-02-18T04:21:05.691Z,1015.57
2019-02-18T04:22:05.675Z,1015.57
2019-02-18T04:23:05.762Z,1015.58
2019-02-18T04:24:05.853Z,1015.60
2019-02-18T04:25:06.061Z,1015.60
2019-02-18T04:26:05.791Z,1015.56
2019-02-18T04:27:05.830Z,1015.56
2019-02-18T04:28:05.908Z,1015.57
2019-02-18T04:29:05.936Z,1015.58
2019-02-18T04:30:05.920Z,1015.60
2019-02-18T04:31:06.250Z,1015.62
2019-02-18T04:32:05.983Z,1015.60
2019-02-18T04:33:06.068Z,1015.60
2019-02-18T04:36:06.189Z,1015.60
2019-02-18T04:37:06.437Z,1015.62
2019-02-18T04:38:06.241Z,1015.60
2019-02-18T04:39:06.250Z,1015.59
2019-02-18T04:40:06.288Z,1015.60
2019-02-18T04:41:06.270Z,1015.58
2019-02-18T04:42:06.350Z,1015.60
2019-02-18T04:43:06.628Z,1015.61
2019-02-18T04:44:06.402Z,1015.60
2019-02-18T04:45:06.385Z,1015.62
2019-02-18T04:46:06.438Z,1015.62
2019-02-18T04:47:06.515Z,1015.59
2019-02-18T04:48:06.547Z,1015.61
2019-02-18T04:49:06.511Z,1015.60
2019-02-18T04:50:06.890Z,1015.60
2019-02-18T04:51:06.631Z,1015.58
2019-02-18T04:52:06.600Z,1015.57
2019-02-18T04:53:06.701Z,1015.60
2019-02-18T04:54:06.703Z,1015.58
2019-02-18T04:55:06.752Z,1015.61
2019-02-18T04:56:06.753Z,1015.60
2019-02-18T04:57:07.066Z,1015.61
2019-02-18T04:58:06.840Z,1015.57
2019-02-18T04:59:06.880Z,1015.58
2019-02-18T05:00:08.477Z,1015.61
2019-02-18T05:01:06.933Z,1015.57
2019-02-18T05:02:06.916Z,1015.57
2019-02-18T05:03:06.993Z,1015.58
2019-02-18T05:04:07.290Z,1015.57
2019-02-18T05:05:07.019Z,1015.64
2019-02-18T05:06:07.092Z,1015.62
2019-02-18T05:07:07.143Z,1015.61
2019-02-18T05:08:07.106Z,1015.58
2019-02-18T05:09:07.187Z,1015.65
2019-02-18T05:10:07.164Z,1015.63
2019-02-18T05:11:07.495Z,1015.61
2019-02-18T05:12:07.223Z,1015.63
2019-02-18T05:13:07.265Z,1015.63
2019-02-18T05:14:07.341Z,1015.66
2019-02-18T05:15:07.391Z,1015.66
2019-02-18T05:16:07.354Z,1015.66
2019-02-18T05:17:07.412Z,1015.64
2019-02-18T05:18:07.723Z,1015.67
2019-02-18T05:19:07.497Z,1015.67
2019-02-18T05:20:07.531Z,1015.68
2019-02-18T05:21:07.556Z,1015.67
2019-02-18T05:22:07.601Z,1015.69
2019-02-18T05:23:07.625Z,1015.69
2019-02-18T05:24:07.606Z,1015.67
2019-02-18T05:25:07.654Z,1015.69
2019-02-18T05:27:07.695Z,1015.68
2019-02-18T05:28:07.777Z,1015.68
2019-02-18T05:29:07.758Z,1015.63
2019-02-18T05:30:07.839Z,1015.70
2019-02-18T05:31:08.114Z,1015.66
2019-02-18T05:32:07.852Z,1015.64
2019-02-18T05:33:07.933Z,1015.69
2019-02-18T05:34:07.919Z,1015.67
2019-02-18T05:35:08.013Z,1015.63
2019-02-18T05:36:07.983Z,1015.60
2019-02-18T05:37:08.010Z,1015.59
2019-02-18T05:38:08.090Z,1015.62
2019-02-18T05:39:17.532Z,1015.64
2019-02-18T05:40:08.108Z,1015.61
2019-02-18T05:41:08.132Z,1015.65
2019-02-18T05:42:08.166Z,1015.61
2019-02-18T05:43:08.245Z,1015.56
2019-02-18T05:44:08.533Z,1015.63
2019-02-18T05:45:08.308Z,1015.59
2019-02-18T05:46:08.807Z,1015.61
2019-02-18T05:47:08.368Z,1015.56
2019-02-18T05:48:08.348Z,1015.59
2019-02-18T05:49:08.380Z,1015.55
2019-02-18T05:50:08.713Z,1015.58
2019-02-18T05:51:08.438Z,1015.57
2019-02-18T05:52:08.467Z,1015.55
2019-02-18T05:53:08.580Z,1015.54
2019-02-18T05:54:08.529Z,1015.54
2019-02-18T05:55:08.626Z,1015.52
2019-02-18T05:56:08.899Z,1015.52
2019-02-18T05:57:08.624Z,1015.51
2019-02-18T05:58:08.708Z,1015.47
2019-02-18T05:59:08.740Z,1015.48
2019-02-18T06:00:08.736Z,1015.48
2019-02-18T06:01:08.752Z,1015.47
2019-02-18T06:02:08.778Z,1015.47
2019-02-18T06:03:09.113Z,1015.47
2019-02-18T06:04:08.924Z,1015.42
2019-02-18T06:05:08.887Z,1015.44
2019-02-18T06:06:08.916Z,1015.43
2019-02-18T06:07:08.986Z,1015.41
2019-02-18T06:08:08.965Z,1015.41
2019-02-18T06:09:09.052Z,1015.38
2019-02-18T06:10:09.393Z,1015.40
2019-02-18T06:11:09.079Z,1015.41
2019-02-18T06:12:09.094Z,1015.39
2019-02-18T06:14:09.205Z,1015.34
2019-02-18T06:15:09.229Z,1015.36
2019-02-18T06:16:09.271Z,1015.37
2019-02-18T06:17:09.244Z,1015.36
2019-02-18T06:18:09.273Z,1015.38
2019-02-18T06:19:09.310Z,1015.35
2019-02-18T06:20:09.346Z,1015.33
2019-02-18T06:21:09.422Z,1015.38
2019-02-18T06:22:09.398Z,1015.32
2019-02-18T06:23:09.789Z,1015.31
2019-02-18T06:24:09.518Z,1015.32
2019-02-18T06:25:09.516Z,1015.32
2019-02-18T06:26:09.526Z,1015.37
2019-02-18T06:27:09.603Z,1015.37
2019-02-18T06:28:09.691Z,1015.36
2019-02-18T06:29:09.664Z,1015.32
2019-02-18T06:30:09.951Z,1015.32
2019-02-18T06:31:09.679Z,1015.34
2019-02-18T06:32:09.720Z,1015.33
2019-02-18T06:33:09.739Z,1015.31
2019-02-18T06:34:09.825Z,1015.34
2019-02-18T06:35:09.855Z,1015.32
2019-02-18T06:36:09.836Z,1015.36
2019-02-18T06:37:10.170Z,1015.35
2019-02-18T06:38:09.967Z,1015.40
2019-02-18T06:39:09.935Z,1015.43
2019-02-18T06:40:09.965Z,1015.44
2019-02-18T06:41:09.991Z,1015.44
2019-02-18T06:42:11.234Z,1015.45
2019-02-18T06:43:10.149Z,1015.43
2019-02-18T06:44:10.381Z,1015.42
2019-02-18T06:45:11.929Z,1015.44
2019-02-18T06:46:10.195Z,1015.41
2019-02-18T06:47:10.230Z,1015.42
2019-02-18T06:48:10.203Z,1015.36
2019-02-18T06:49:10.244Z,1015.41
2019-02-18T06:50:10.264Z,1015.41
2019-02-18T06:51:10.605Z,1015.40
2019-02-18T06:52:10.382Z,1015.41
2019-02-18T06:53:10.440Z,1015.43
2019-02-18T06:54:10.441Z,1015.45
2019-02-18T06:55:10.429Z,1015.42
2019-02-18T06:56:10.510Z,1015.42
2019-02-18T06:57:10.485Z,1015.43
2019-02-18T06:58:12.675Z,1015.43
2019-02-18T06:59:10.594Z,1015.47
2019-02-18T07:00:10.635Z,1015.48
2019-02-18T07:01:10.604Z,1015.45
2019-02-18T07:02:10.642Z,1015.42
2019-02-18T07:03:10.673Z,1015.44
2019-02-18T07:04:11.052Z,1015.45
2019-02-18T07:05:10.866Z,1015.45
2019-02-18T07:06:10.772Z,1015.42
2019-02-18T07:07:10.794Z,1015.40
2019-02-18T07:08:10.838Z,1015.42
2019-02-18T07:09:10.914Z,1015.41
2019-02-18T07:10:11.193Z,1015.42
2019-02-18T07:11:10.972Z,1015.42
2019-02-18T07:12:10.954Z,1015.38
2019-02-18T07:13:10.984Z,1015.38
2019-02-18T07:14:11.062Z,1015.37
2019-02-18T07:15:11.039Z,1015.35
2019-02-18T07:16:11.421Z,1015.39
2019-02-18T07:17:11.106Z,1015.36
2019-02-18T07:18:11.186Z,1015.34
2019-02-18T07:19:11.318Z,1015.34
2019-02-18T07:20:11.249Z,1015.37
2019-02-18T07:21:11.229Z,1015.37
2019-02-18T07:22:11.306Z,1015.38
2019-02-18T07:23:11.588Z,1015.43
2019-02-18T07:24:11.369Z,1015.44
2019-02-18T07:25:11.353Z,1015.46
2019-02-18T07:26:11.386Z,1015.46
2019-02-18T07:27:11.466Z,1015.49
2019-02-18T07:28:11.490Z,1015.49
2019-02-18T07:29:11.478Z,1015.49
2019-02-18T07:30:11.565Z,1015.49
2019-02-18T07:31:11.541Z,1015.50
2019-02-18T07:32:11.569Z,1015.46
2019-02-18T07:33:11.649Z,1015.51
2019-02-18T07:34:11.633Z,1015.49
2019-02-18T07:35:11.666Z,1015.46
2019-02-18T07:36:12.044Z,1015.47
2019-02-18T07:37:11.729Z,1015.42
2019-02-18T07:38:11.759Z,1015.40
2019-02-18T07:39:11.879Z,1015.40
2019-02-18T07:40:11.869Z,1015.40
2019-02-18T07:41:11.892Z,1015.36
2019-02-18T07:42:11.886Z,1015.38
2019-02-18T07:43:11.961Z,1015.34
2019-02-18T07:44:11.985Z,1015.35
2019-02-18T07:45:11.977Z,1015.37
2019-02-18T07:46:12.007Z,1015.34
2019-02-18T07:47:12.088Z,1015.33
2019-02-18T07:49:12.147Z,1015.31
2019-02-18T07:50:20.421Z,1015.34
2019-02-18T07:51:12.214Z,1015.32
2019-02-18T07:52:12.234Z,1015.29
2019-02-18T07:53:12.217Z,1015.31
2019-02-18T07:54:12.298Z,1015.31
2019-02-18T07:55:12.351Z,1015.31
2019-02-18T07:56:12.609Z,1015.27
2019-02-18T07:57:12.341Z,1015.28
2019-02-18T07:58:12.374Z,1015.27
2019-02-18T07:59:12.463Z,1015.24
2019-02-18T08:00:12.488Z,1015.29
2019-02-18T08:01:12.570Z,1015.33
2019-02-18T08:02:12.498Z,1015.29
2019-02-18T08:03:12.577Z,1015.30
2019-02-18T08:04:12.710Z,1015.32
2019-02-18T08:05:12.599Z,1015.34
2019-02-18T08:06:12.622Z,1015.33
2019-02-18T08:07:12.706Z,1015.36
2019-02-18T08:08:12.683Z,1015.35
2019-02-18T08:09:13.068Z,1015.30
2019-02-18T08:10:12.824Z,1015.34
2019-02-18T08:11:12.832Z,1015.33
2019-02-18T08:12:12.810Z,1015.30
2019-02-18T08:13:12.893Z,1015.33
2019-02-18T08:14:12.873Z,1015.30
2019-02-18T08:15:13.201Z,1015.26
2019-02-18T08:16:12.982Z,1015.29
2019-02-18T08:17:12.971Z,1015.30
2019-02-18T08:18:13.012Z,1015.26
2019-02-18T08:19:15.521Z,1015.24
2019-02-18T08:20:13.059Z,1015.30
2019-02-18T08:21:13.453Z,1015.24
2019-02-18T08:22:13.118Z,1015.26
2019-02-18T08:23:13.542Z,1015.27
2019-02-18T08:24:13.182Z,1015.25
2019-02-18T08:25:13.215Z,1015.26
2019-02-18T08:26:13.291Z,1015.24
2019-02-18T08:27:13.322Z,1015.24
2019-02-18T08:28:13.307Z,1015.24
2019-02-18T08:29:13.340Z,1015.24
2019-02-18T08:30:13.372Z,1015.23
2019-02-18T08:31:13.445Z,1015.27
2019-02-18T08:32:13.492Z,1015.23
2019-02-18T08:33:13.456Z,1015.28
2019-02-18T08:34:13.846Z,1015.25
2019-02-18T08:35:13.569Z,1015.23
2019-02-18T08:36:13.551Z,1015.24
2019-02-18T08:37:13.586Z,1015.19
2019-02-18T08:38:13.663Z,1015.23
2019-02-18T08:39:13.700Z,1015.17
2019-02-18T08:40:22.019Z,1015.17
2019-02-18T08:41:14.012Z,1015.20
2019-02-18T08:42:13.763Z,1015.15
2019-02-18T08:43:13.820Z,1015.13
2019-02-18T08:44:13.855Z,1015.13
2019-02-18T08:45:13.890Z,1015.14
2019-02-18T08:46:13.872Z,1015.10
2019-02-18T08:47:13.943Z,1015.13
2019-02-18T08:48:14.234Z,1015.11
2019-02-18T08:49:14.010Z,1015.11
2019-02-18T08:50:13.996Z,1015.08
2019-02-18T08:51:14.084Z,1015.10
2019-02-18T08:52:14.103Z,1015.11
2019-02-18T08:53:14.084Z,1015.12
2019-02-18T08:54:14.178Z,1015.09
2019-02-18T08:55:14.463Z,1015.09
2019-02-18T08:56:14.221Z,1015.13
2019-02-18T08:57:14.204Z,1015.11
2019-02-18T08:58:14.289Z,1015.13
2019-02-18T08:59:14.329Z,1015.10
2019-02-18T09:00:14.352Z,1015.11
2019-02-18T09:01:14.333Z,1015.10
2019-02-18T09:02:14.665Z,1015.10
2019-02-18T09:03:14.441Z,1015.09
2019-02-18T09:04:14.478Z,1015.08
2019-02-18T09:05:14.544Z,1015.06
2019-02-18T09:06:14.487Z,1015.10
2019-02-18T09:07:14.579Z,1015.10
2019-02-18T09:08:14.550Z,1015.07
2019-02-18T09:09:14.877Z,1015.07
2019-02-18T09:10:14.654Z,1015.04
2019-02-18T09:11:14.695Z,1015.05
2019-02-18T09:12:14.671Z,1015.04
2019-02-18T09:13:14.753Z,1015.05
2019-02-18T09:14:14.742Z,1015.01
2019-02-18T09:15:14.814Z,1015.02
2019-02-18T09:16:15.104Z,1015.03
2019-02-18T09:17:14.886Z,1014.99
2019-02-18T09:18:14.860Z,1014.98
2019-02-18T09:19:14.954Z,1014.97
2019-02-18T09:20:14.973Z,1015.01
2019-02-18T09:21:14.962Z,1014.96
2019-02-18T09:22:15.041Z,1014.97
2019-02-18T09:23:15.367Z,1014.96
2019-02-18T09:24:15.049Z,1014.98
2019-02-18T09:25:15.087Z,1014.94
2019-02-18T09:26:15.116Z,1014.94
2019-02-18T09:27:15.172Z,1014.94
2019-02-18T09:28:15.222Z,1014.97
2019-02-18T09:29:15.503Z,1014.99
2019-02-18T09:30:15.233Z,1014.97
2019-02-18T09:31:15.326Z,1014.96
2019-02-18T09:32:15.355Z,1014.98
2019-02-18T09:33:15.334Z,1015.00
2019-02-18T09:34:15.364Z,1014.97
2019-02-18T09:35:15.696Z,1014.97
2019-02-18T09:36:15.477Z,1015.02
2019-02-18T09:37:15.463Z,1015.02
2019-02-18T09:38:24.389Z,1014.98
2019-02-18T09:39:15.573Z,1014.97
2019-02-18T09:40:15.594Z,1014.98
2019-02-18T09:41:15.631Z,1014.98
2019-02-18T09:42:15.608Z,1014.97
2019-02-18T09:43:15.697Z,1014.95
2019-02-18T09:44:15.682Z,1015.01
2019-02-18T09:45:15.708Z,1014.99
2019-02-18T09:46:15.791Z,1014.97
2019-02-18T09:47:15.828Z,1014.96
2019-02-18T09:48:15.812Z,1014.97
2019-02-18T09:49:15.836Z,1014.95
2019-02-18T09:50:15.862Z,1014.94
2019-02-18T09:51:15.958Z,1014.92
2019-02-18T09:52:15.975Z,1014.89
2019-02-18T09:53:16.258Z,1014.90
2019-02-18T09:54:16.043Z,1014.87
2019-02-18T09:55:16.065Z,1014.93
2019-02-18T09:56:16.102Z,1014.92
2019-02-18T09:57:16.137Z,1014.95
2019-02-18T09:58:16.116Z,1014.96
2019-02-18T09:59:16.145Z,1014.95
2019-02-18T10:00:16.188Z,1014.95
2019-02-18T10:01:16.210Z,1014.93
2019-02-18T10:02:16.287Z,1014.96
2019-02-18T10:03:16.321Z,1014.93
2019-02-18T10:04:16.367Z,1014.91
2019-02-18T10:05:16.386Z,1014.91
2019-02-18T10:06:16.413Z,1014.94
2019-02-18T10:07:16.444Z,1014.95
2019-02-18T10:08:16.432Z,1014.89
2019-02-18T10:09:16.467Z,1014.90
2019-02-18T10:10:16.551Z,1014.90
2019-02-18T10:11:16.592Z,1014.91
2019-02-18T10:12:18.750Z,1014.91
2019-02-18T10:13:16.594Z,1014.93
2019-02-18T10:14:16.625Z,1014.95
2019-02-18T10:15:16.656Z,1014.90
2019-02-18T10:16:16.732Z,1014.86
2019-02-18T10:17:16.712Z,1014.90
2019-02-18T10:18:17.042Z,1014.87
2019-02-18T10:19:16.831Z,1014.84
2019-02-18T10:20:16.805Z,1014.85
2019-02-18T10:21:16.891Z,1014.83
2019-02-18T10:22:16.871Z,1014.82
2019-02-18T10:23:16.951Z,1014.77
2019-02-18T10:24:17.286Z,1014.80
2019-02-18T10:25:16.971Z,1014.78
2019-02-18T10:26:16.994Z,1014.80
2019-02-18T10:27:17.077Z,1014.76
2019-02-18T10:28:17.107Z,1014.76
2019-02-18T10:29:17.091Z,1014.77
2019-02-18T10:30:17.173Z,1014.77
2019-02-18T10:31:17.458Z,1014.72
2019-02-18T10:32:17.178Z,1014.70
2019-02-18T10:33:17.258Z,1014.71
2019-02-18T10:34:17.247Z,1014.70
2019-02-18T10:35:17.329Z,1014.68
2019-02-18T10:36:17.361Z,1014.66
2019-02-18T10:37:17.445Z,1014.68
2019-02-18T10:38:17.676Z,1014.62
2019-02-18T10:39:17.401Z,1014.65
2019-02-18T10:40:17.486Z,1014.66
2019-02-18T10:41:19.260Z,1014.65
2019-02-18T10:42:17.499Z,1014.66
2019-02-18T10:43:17.608Z,1014.67
2019-02-18T10:44:17.611Z,1014.64
2019-02-18T10:45:17.893Z,1014.60
2019-02-18T10:46:17.620Z,1014.60
2019-02-18T10:47:17.720Z,1014.58
2019-02-18T10:48:17.739Z,1014.62
2019-02-18T10:49:20.550Z,1014.57
2019-02-18T10:50:17.803Z,1014.55
2019-02-18T10:51:17.778Z,1014.57
2019-02-18T10:52:18.111Z,1014.57
2019-02-18T10:53:17.838Z,1014.58
2019-02-18T10:54:17.922Z,1014.58
2019-02-18T10:55:17.964Z,1014.56
2019-02-18T10:56:17.938Z,1014.53
2019-02-18T10:57:18.028Z,1014.54
2019-02-18T10:58:18.009Z,1014.55
2019-02-18T10:59:18.089Z,1014.48
2019-02-18T11:00:18.066Z,1014.50
2019-02-18T11:01:18.093Z,1014.48
2019-02-18T11:02:18.185Z,1014.49
2019-02-18T11:03:18.165Z,1014.44
2019-02-18T11:04:18.191Z,1014.47
2019-02-18T11:05:18.582Z,1014.45
2019-02-18T11:06:18.252Z,1014.45
2019-02-18T11:07:18.342Z,1014.42
2019-02-18T11:08:18.326Z,1014.44
2019-02-18T11:09:18.396Z,1014.45
2019-02-18T11:10:18.430Z,1014.40
2019-02-18T11:11:18.420Z,1014.41
2019-02-18T11:12:18.440Z,1014.42
2019-02-18T11:13:18.512Z,1014.35
2019-02-18T11:14:18.505Z,1014.33
2019-02-18T11:15:18.592Z,1014.32
2019-02-18T11:16:18.630Z,1014.30
2019-02-18T11:17:18.613Z,1014.32
2019-02-18T11:18:18.936Z,1014.32
2019-02-18T11:19:18.724Z,1014.30
2019-02-18T11:20:18.700Z,1014.31
2019-02-18T11:21:18.727Z,1014.28
2019-02-18T11:22:18.768Z,1014.25
2019-02-18T11:23:18.848Z,1014.26
2019-02-18T11:24:20.742Z,1014.22
2019-02-18T11:25:18.908Z,1014.19
2019-02-18T11:26:18.984Z,1014.16
2019-02-18T11:27:18.975Z,1014.09
2019-02-18T11:28:18.952Z,1014.09
2019-02-18T11:29:18.984Z,1014.04
2019-02-18T11:30:19.384Z,1014.04
2019-02-18T11:31:19.094Z,1014.04
2019-02-18T11:32:19.081Z,1014.02
2019-02-18T11:33:19.115Z,1014.03
2019-02-18T11:34:19.146Z,1014.04
2019-02-18T11:35:19.223Z,1014.02
2019-02-18T11:36:19.260Z,1014.00
2019-02-18T11:37:19.544Z,1013.99
2019-02-18T11:38:19.328Z,1014.01
2019-02-18T11:39:19.399Z,1013.98
2019-02-18T11:40:19.336Z,1013.98
2019-02-18T11:41:27.045Z,1013.93
2019-02-18T11:42:19.459Z,1013.90
2019-02-18T11:43:19.479Z,1013.91
2019-02-18T11:44:19.763Z,1013.89
2019-02-18T11:45:19.495Z,1013.85
2019-02-18T11:46:19.574Z,1013.82
2019-02-18T11:48:19.586Z,1013.80
2019-02-18T11:49:19.670Z,1013.78
2019-02-18T11:50:19.704Z,1013.78
2019-02-18T11:51:19.737Z,1013.74
2019-02-18T11:52:19.773Z,1013.77
2019-02-18T11:53:19.745Z,1013.72
2019-02-18T11:54:19.779Z,1013.72
2019-02-18T11:55:19.857Z,1013.68
2019-02-18T11:56:19.891Z,1013.68
2019-02-18T11:57:20.178Z,1013.67
2019-02-18T11:58:19.960Z,1013.66
2019-02-18T11:59:24.331Z,1013.68
2019-02-18T12:00:19.970Z,1013.60
2019-02-18T12:01:20.052Z,1013.58
2019-02-18T12:02:20.157Z,1013.61
2019-02-18T12:03:20.115Z,1013.58
2019-02-18T12:04:20.403Z,1013.55
2019-02-18T12:05:20.135Z,1013.53
2019-02-18T12:06:20.208Z,1013.55
2019-02-18T12:07:20.248Z,1013.48
2019-02-18T12:08:20.279Z,1013.50
2019-02-18T12:09:20.314Z,1013.47
2019-02-18T12:11:20.393Z,1013.50
2019-02-18T12:12:20.419Z,1013.51
2019-02-18T12:13:20.380Z,1013.44
2019-02-18T12:14:20.425Z,1013.48
2019-02-18T12:15:20.444Z,1013.41
2019-02-18T12:16:20.525Z,1013.47